createdAt,value
2022-08-21T00:00:02.332Z,13.8
2022-08-21T00:05:01.042Z,13.7
2022-08-21T00:15:01.038Z,13.7
2022-08-21T00:30:01.052Z,13.6
2022-08-21T00:45:01.056Z,13.5
2022-08-21T00:55:01.037Z,13.4
2022-08-21T01:00:02.561Z,13.4
2022-08-21T01:05:01.076Z,13.3
2022-08-21T01:15:01.057Z,13.2
2022-08-21T01:25:01.013Z,13.1
2022-08-21T01:30:00.941Z,13.0
2022-08-21T01:40:01.038Z,12.9
2022-08-21T01:45:01.152Z,12.9
2022-08-21T01:55:02.176Z,12.8
2022-08-21T02:00:02.237Z,12.8
2022-08-21T02:15:01.052Z,12.8
2022-08-21T02:20:00.959Z,12.7
2022-08-21T02:30:01.924Z,12.7
2022-08-21T02:35:01.036Z,12.6
2022-08-21T02:45:01.137Z,12.6
2022-08-21T02:50:00.970Z,12.5
2022-08-21T03:00:02.703Z,12.5
2022-08-21T03:05:01.044Z,12.4
2022-08-21T03:15:01.021Z,12.4
2022-08-21T03:30:00.991Z,12.4
2022-08-21T03:35:00.980Z,12.3
2022-08-21T03:45:00.982Z,12.3
2022-08-21T04:00:02.216Z,12.3
2022-08-21T04:05:15.806Z,12.2
2022-08-21T04:15:02.064Z,12.2
2022-08-21T04:20:00.997Z,12.1
2022-08-21T04:30:01.036Z,12.1
2022-08-21T04:35:01.041Z,12.2
2022-08-21T04:45:01.025Z,12.3
2022-08-21T04:55:01.022Z,12.4
2022-08-21T05:00:02.040Z,12.4
2022-08-21T05:05:15.823Z,12.5
2022-08-21T05:10:00.809Z,12.6
2022-08-21T05:30:01.214Z,13.2
2022-08-21T05:35:01.057Z,13.4
2022-08-21T05:45:01.071Z,13.6
2022-08-21T05:55:02.621Z,13.9
2022-08-21T06:00:03.645Z,14.1
2022-08-21T06:05:06.061Z,14.4
2022-08-21T06:10:02.049Z,14.6
2022-08-21T06:15:02.184Z,15.0
2022-08-21T06:20:01.068Z,15.3
2022-08-21T06:25:01.071Z,15.7
2022-08-21T06:30:11.896Z,16.0
2022-08-21T06:35:01.065Z,16.4
2022-08-21T06:40:01.084Z,16.6
2022-08-21T06:45:01.401Z,16.9
2022-08-21T06:50:01.084Z,17.1
2022-08-21T06:55:01.328Z,17.4
2022-08-21T07:00:02.686Z,17.6
2022-08-21T07:05:01.213Z,17.9
2022-08-21T07:10:01.086Z,18.1
2022-08-21T07:15:01.329Z,18.3
2022-08-21T07:20:01.082Z,18.4
2022-08-21T07:25:02.247Z,18.6
2022-08-21T07:30:01.080Z,18.8
2022-08-21T07:35:01.218Z,19.0
2022-08-21T07:40:01.123Z,19.2
2022-08-21T07:45:01.151Z,19.4
2022-08-21T07:50:01.086Z,19.5
2022-08-21T07:55:05.459Z,19.8
2022-08-21T08:00:02.113Z,19.9
2022-08-21T08:05:01.285Z,20.1
2022-08-21T08:10:16.932Z,20.3
2022-08-21T08:15:01.050Z,20.5
2022-08-21T08:20:01.147Z,20.7
2022-08-21T08:25:01.307Z,20.9
2022-08-21T08:30:01.095Z,21.0
2022-08-21T08:35:01.200Z,21.2
2022-08-21T08:40:01.128Z,21.3
2022-08-21T08:45:01.260Z,21.4
2022-08-21T08:50:01.087Z,21.5
2022-08-21T08:55:01.152Z,21.7
2022-08-21T09:00:02.423Z,21.8
2022-08-21T09:05:01.154Z,22.0
2022-08-21T09:10:01.245Z,22.1
2022-08-21T09:15:01.188Z,22.3
2022-08-21T09:20:01.101Z,22.4
2022-08-21T09:25:01.225Z,22.5
2022-08-21T09:30:01.109Z,22.6
2022-08-21T09:35:01.190Z,22.7
2022-08-21T09:45:01.226Z,22.8
2022-08-21T09:55:01.239Z,22.9
2022-08-21T10:00:02.390Z,23.0
2022-08-21T10:05:02.198Z,23.2
2022-08-21T10:10:01.119Z,23.3
2022-08-21T10:15:01.619Z,23.5
2022-08-21T10:20:01.147Z,23.6
2022-08-21T10:25:01.209Z,23.8
2022-08-21T10:30:01.152Z,23.9
2022-08-21T10:35:01.364Z,24.1
2022-08-21T10:40:01.209Z,24.2
2022-08-21T10:45:01.221Z,24.3
2022-08-21T10:50:01.162Z,24.4
2022-08-21T11:00:02.210Z,24.3
2022-08-21T11:05:01.224Z,24.4
2022-08-21T11:10:01.167Z,24.3
2022-08-21T11:15:01.323Z,24.3
2022-08-21T11:20:01.120Z,24.5
2022-08-21T11:25:04.149Z,24.6
2022-08-21T11:30:01.148Z,24.7
2022-08-21T11:35:01.680Z,24.9
2022-08-21T11:40:01.199Z,25.0
2022-08-21T11:45:01.230Z,25.3
2022-08-21T11:50:01.147Z,25.6
2022-08-21T11:55:01.430Z,25.7
2022-08-21T12:00:02.305Z,25.7
2022-08-21T12:10:01.193Z,25.6
2022-08-21T12:15:01.236Z,25.3
2022-08-21T12:20:01.137Z,25.0
2022-08-21T12:25:01.201Z,24.8
2022-08-21T12:30:01.132Z,24.5
2022-08-21T12:35:01.269Z,24.1
2022-08-21T12:40:01.645Z,24.0
2022-08-21T12:45:01.273Z,23.8
2022-08-21T12:50:01.171Z,23.7
2022-08-21T12:55:01.239Z,23.5
2022-08-21T13:00:02.240Z,23.5
2022-08-21T13:05:01.292Z,23.8
2022-08-21T13:10:01.178Z,24.2
2022-08-21T13:15:01.270Z,24.5
2022-08-21T13:20:01.186Z,24.9
2022-08-21T13:25:01.525Z,25.2
2022-08-21T13:30:01.335Z,25.0
2022-08-21T13:35:06.222Z,24.7
2022-08-21T13:40:01.191Z,24.4
2022-08-21T13:45:01.288Z,24.1
2022-08-21T13:50:01.118Z,23.9
2022-08-21T13:55:01.493Z,23.7
2022-08-21T14:00:02.242Z,23.7
2022-08-21T14:05:01.234Z,23.8
2022-08-21T14:10:01.209Z,24.0
2022-08-21T14:15:01.215Z,24.0
2022-08-21T14:25:01.291Z,23.9
2022-08-21T14:30:01.164Z,23.7
2022-08-21T14:40:01.332Z,23.9
2022-08-21T14:45:01.297Z,24.3
2022-08-21T14:50:01.174Z,24.8
2022-08-21T14:55:01.299Z,25.4
2022-08-21T15:00:04.014Z,25.7
2022-08-21T15:05:01.582Z,25.9
2022-08-21T15:15:01.345Z,25.8
2022-08-21T15:20:01.180Z,25.6
2022-08-21T15:25:01.246Z,25.4
2022-08-21T15:30:01.183Z,25.4
2022-08-21T15:35:01.527Z,25.3
2022-08-21T15:45:01.251Z,25.2
2022-08-21T15:50:01.193Z,25.1
2022-08-21T15:55:01.184Z,24.7
2022-08-21T16:00:02.858Z,24.4
2022-08-21T16:05:01.415Z,23.9
2022-08-21T16:10:01.189Z,23.6
2022-08-21T16:15:01.293Z,23.5
2022-08-21T16:30:00.988Z,23.6
2022-08-21T16:40:01.040Z,23.5
2022-08-21T16:45:00.990Z,23.3
2022-08-21T16:50:00.992Z,23.1
2022-08-21T16:55:00.995Z,22.9
2022-08-21T17:00:00.997Z,22.7
2022-08-21T17:05:00.992Z,22.8
2022-08-21T17:10:00.994Z,23.0
2022-08-21T17:15:00.995Z,23.2
2022-08-21T17:20:00.996Z,23.4
2022-08-21T17:25:01.005Z,23.5
2022-08-21T17:30:00.999Z,23.3
2022-08-21T17:35:01.010Z,23.0
2022-08-21T17:40:01.044Z,22.9
2022-08-21T17:45:01.009Z,22.6
2022-08-21T17:50:01.068Z,22.4
2022-08-21T17:55:01.046Z,22.1
2022-08-21T18:00:01.034Z,22.0
2022-08-21T18:05:01.079Z,21.7
2022-08-21T18:10:01.171Z,21.6
2022-08-21T18:15:01.058Z,21.4
2022-08-21T18:20:01.073Z,21.3
2022-08-21T18:25:01.061Z,21.1
2022-08-21T18:30:01.048Z,21.1
2022-08-21T18:35:01.050Z,20.9
2022-08-21T18:40:01.093Z,20.8
2022-08-21T18:45:01.333Z,20.6
2022-08-21T18:50:01.122Z,20.5
2022-08-21T18:55:01.839Z,20.3
2022-08-21T19:00:01.092Z,20.2
2022-08-21T19:05:01.033Z,20.0
2022-08-21T19:10:24.830Z,19.9
2022-08-21T19:15:01.037Z,19.7
2022-08-21T19:20:01.104Z,19.6
2022-08-21T19:25:01.022Z,19.5
2022-08-21T19:30:01.042Z,19.3
2022-08-21T19:35:01.047Z,19.1
2022-08-21T19:40:01.073Z,19.0
2022-08-21T19:45:01.042Z,18.9
2022-08-21T19:50:01.097Z,18.8
2022-08-21T19:55:01.045Z,18.6
2022-08-21T20:00:01.114Z,18.5
2022-08-21T20:05:01.293Z,18.2
2022-08-21T20:10:01.263Z,18.1
2022-08-21T20:15:02.312Z,17.9
2022-08-21T20:20:01.268Z,17.8
2022-08-21T20:25:01.265Z,17.7
2022-08-21T20:30:01.269Z,17.6
2022-08-21T20:35:01.277Z,17.5
2022-08-21T20:40:01.322Z,17.4
2022-08-21T20:45:01.285Z,17.3
2022-08-21T20:50:01.276Z,17.2
2022-08-21T20:55:01.276Z,17.1
2022-08-21T21:00:02.251Z,17.0
2022-08-21T21:05:01.279Z,16.9
2022-08-21T21:10:01.254Z,16.8
2022-08-21T21:15:01.320Z,16.7
2022-08-21T21:20:01.296Z,16.6
2022-08-21T21:25:01.296Z,16.5
2022-08-21T21:30:01.569Z,16.5
2022-08-21T21:35:01.304Z,16.4
2022-08-21T21:40:01.325Z,16.3
2022-08-21T21:45:01.303Z,16.2
2022-08-21T21:50:01.344Z,16.1
2022-08-21T21:55:01.496Z,16.0
2022-08-21T22:00:02.595Z,16.0
2022-08-21T22:05:01.313Z,15.9
2022-08-21T22:10:19.920Z,15.8
2022-08-21T22:15:26.286Z,15.7
2022-08-21T22:25:01.308Z,15.6
2022-08-21T22:30:01.300Z,15.5
2022-08-21T22:35:01.304Z,15.4
2022-08-21T22:40:01.599Z,15.3
2022-08-21T22:45:01.307Z,15.2
2022-08-21T22:55:01.315Z,15.1
2022-08-21T23:00:02.403Z,15.0
2022-08-21T23:05:01.317Z,14.9
2022-08-21T23:15:01.322Z,14.8
2022-08-21T23:20:01.297Z,14.7
2022-08-21T23:25:04.710Z,14.6
2022-08-21T23:30:01.270Z,14.5
2022-08-21T23:40:02.891Z,14.4
2022-08-21T23:45:02.567Z,14.4
2022-08-21T23:55:01.353Z,14.3
